createdAt,value
2017-12-06T00:01:58.253Z,63.87
2017-12-06T00:04:26.168Z,58.70
2017-12-06T00:06:54.043Z,62.80
2017-12-06T00:09:21.989Z,55.93
2017-12-06T00:11:49.876Z,72.53
2017-12-06T00:14:23.472Z,67.53
2017-12-06T00:16:51.319Z,62.87
2017-12-06T00:19:19.288Z,56.10
2017-12-06T00:21:47.197Z,58.33
2017-12-06T00:24:15.843Z,54.63
2017-12-06T00:26:43.704Z,57.80
2017-12-06T00:29:11.547Z,53.40
2017-12-06T00:31:39.342Z,61.57
2017-12-06T00:34:07.328Z,46.50
2017-12-06T00:36:35.112Z,48.47
2017-12-06T00:39:03.884Z,59.97
2017-12-06T00:41:31.855Z,53.43
2017-12-06T00:43:59.713Z,69.97
2017-12-06T00:46:27.618Z,48.43
2017-12-06T00:48:56.129Z,58.10
2017-12-06T00:51:23.930Z,97.00
2017-12-06T00:53:51.872Z,91.10
2017-12-06T00:56:19.737Z,88.53
2017-12-06T00:58:47.631Z,81.07
2017-12-06T01:01:15.598Z,142.93
2017-12-06T01:03:43.572Z,81.47
2017-12-06T01:06:11.428Z,145.73
2017-12-06T01:08:39.284Z,81.77
2017-12-06T01:11:07.792Z,60.87
2017-12-06T01:13:35.636Z,70.70
2017-12-06T01:16:03.451Z,51.93
2017-12-06T01:18:31.246Z,80.90
2017-12-06T01:20:59.047Z,71.80
2017-12-06T01:23:27.809Z,63.63
2017-12-06T01:25:55.618Z,80.40
2017-12-06T01:28:24.252Z,101.10
2017-12-06T01:30:52.116Z,85.70
2017-12-06T01:33:20.110Z,81.60
2017-12-06T01:35:47.980Z,55.73
2017-12-06T01:38:15.731Z,63.20
2017-12-06T01:40:43.805Z,60.90
2017-12-06T01:43:11.649Z,79.13
2017-12-06T01:45:39.549Z,77.90
2017-12-06T01:48:07.838Z,55.07
2017-12-06T01:50:36.615Z,68.10
2017-12-06T01:53:04.478Z,85.10
2017-12-06T01:55:32.348Z,53.50
2017-12-06T01:58:00.202Z,58.03
2017-12-06T02:00:28.255Z,76.37
2017-12-06T02:02:56.056Z,50.87
2017-12-06T02:05:23.904Z,67.67
2017-12-06T02:07:51.835Z,79.20
2017-12-06T02:10:19.630Z,56.00
2017-12-06T02:12:47.611Z,103.07
2017-12-06T02:15:15.407Z,59.93
2017-12-06T02:17:44.069Z,73.17
2017-12-06T02:20:12.002Z,74.40
2017-12-06T02:22:40.184Z,85.60
2017-12-06T02:25:07.992Z,82.13
2017-12-06T02:27:36.752Z,68.90
2017-12-06T02:30:04.720Z,70.13
2017-12-06T02:32:32.671Z,52.33
2017-12-06T02:35:00.639Z,40.93
2017-12-06T02:37:28.697Z,60.53
2017-12-06T02:40:09.370Z,47.00
2017-12-06T02:42:48.958Z,54.50
2017-12-06T02:45:30.521Z,33.50
2017-12-06T02:47:58.488Z,43.77
2017-12-06T02:50:26.410Z,45.37
2017-12-06T02:52:54.331Z,39.43
2017-12-06T02:55:22.240Z,50.03
2017-12-06T02:57:50.240Z,49.27
2017-12-06T03:00:18.257Z,48.93
2017-12-06T03:02:47.554Z,55.00
2017-12-06T03:05:16.293Z,47.50
2017-12-06T03:07:44.080Z,37.77
2017-12-06T03:10:11.949Z,42.53
2017-12-06T03:12:39.890Z,41.33
2017-12-06T03:15:07.797Z,68.67
2017-12-06T03:17:36.470Z,56.70
2017-12-06T03:20:04.331Z,43.20
2017-12-06T03:22:32.195Z,56.67
2017-12-06T03:24:59.966Z,58.87
2017-12-06T03:27:28.491Z,59.80
2017-12-06T03:29:56.389Z,52.47
2017-12-06T03:32:24.353Z,50.07
2017-12-06T03:34:52.229Z,68.50
2017-12-06T03:37:20.099Z,52.40
2017-12-06T03:39:47.979Z,47.53
2017-12-06T03:42:15.735Z,59.50
2017-12-06T03:44:43.596Z,45.00
2017-12-06T03:47:11.367Z,40.70
2017-12-06T03:49:39.135Z,48.20
2017-12-06T03:52:07.009Z,47.20
2017-12-06T03:54:35.172Z,58.97
2017-12-06T03:57:03.866Z,56.47
2017-12-06T03:59:32.443Z,55.33
2017-12-06T04:02:00.306Z,49.50
2017-12-06T04:04:28.179Z,50.87
2017-12-06T04:06:55.951Z,55.83
2017-12-06T04:09:23.884Z,59.70
2017-12-06T04:11:51.778Z,54.53
2017-12-06T04:14:19.647Z,48.97
2017-12-06T04:19:42.518Z,61.20
2017-12-06T04:22:10.494Z,50.83
2017-12-06T04:24:39.139Z,37.63
2017-12-06T04:27:06.978Z,34.60
2017-12-06T04:29:34.857Z,42.63
2017-12-06T04:32:02.765Z,51.53
2017-12-06T04:34:30.519Z,55.50
2017-12-06T04:36:58.496Z,51.27
2017-12-06T04:39:26.471Z,37.63
2017-12-06T04:41:54.410Z,46.17
2017-12-06T04:46:49.942Z,39.63
2017-12-06T04:49:17.827Z,49.93
2017-12-06T04:51:45.689Z,35.77
2017-12-06T04:54:14.068Z,34.33
2017-12-06T04:56:42.908Z,43.17
2017-12-06T04:59:10.669Z,42.30
2017-12-06T05:01:39.099Z,47.77
2017-12-06T05:04:07.632Z,44.80
2017-12-06T05:06:36.350Z,40.70
2017-12-06T05:09:04.338Z,34.63
2017-12-06T05:11:32.732Z,52.13
2017-12-06T05:14:00.497Z,38.07
2017-12-06T05:16:28.262Z,36.93
2017-12-06T05:18:56.195Z,38.37
2017-12-06T05:21:24.082Z,34.57
2017-12-06T05:23:53.032Z,28.90
2017-12-06T05:26:20.919Z,45.60
2017-12-06T05:28:48.887Z,43.70
2017-12-06T05:31:16.777Z,53.70
2017-12-06T05:33:44.639Z,37.33
2017-12-06T05:36:12.408Z,49.30
2017-12-06T05:38:40.352Z,62.30
2017-12-06T05:41:08.902Z,87.10
2017-12-06T05:43:36.725Z,70.00
2017-12-06T05:46:06.147Z,59.63
2017-12-06T05:48:34.682Z,51.97
2017-12-06T05:51:02.514Z,51.80
2017-12-06T05:53:30.827Z,50.20
2017-12-06T05:55:58.682Z,46.33
2017-12-06T05:58:26.585Z,44.97
2017-12-06T06:00:54.454Z,46.77
2017-12-06T06:03:23.810Z,42.23
2017-12-06T06:05:51.765Z,47.40
2017-12-06T06:08:19.586Z,54.63
2017-12-06T06:10:47.405Z,48.13
2017-12-06T06:13:15.329Z,53.33
2017-12-06T06:15:43.160Z,64.37
2017-12-06T06:18:11.144Z,53.77
2017-12-06T06:20:38.954Z,47.67
2017-12-06T06:23:07.634Z,49.63
2017-12-06T06:25:36.262Z,46.23
2017-12-06T06:28:04.155Z,48.13
2017-12-06T06:30:32.121Z,61.77
2017-12-06T06:33:00.275Z,42.03
2017-12-06T06:35:28.857Z,60.97
2017-12-06T06:37:56.943Z,70.23
2017-12-06T06:40:24.908Z,69.83
2017-12-06T06:42:52.780Z,72.43
2017-12-06T06:45:22.028Z,119.87
2017-12-06T06:47:50.050Z,124.80
2017-12-06T06:50:17.801Z,204.07
2017-12-06T06:52:46.500Z,118.90
2017-12-06T06:55:14.422Z,222.40
2017-12-06T06:57:42.249Z,309.77
2017-12-06T07:00:10.914Z,248.40
2017-12-06T07:02:39.471Z,157.70
2017-12-06T07:05:07.250Z,431.37
2017-12-06T07:07:35.044Z,281.37
2017-12-06T07:10:02.887Z,368.33
2017-12-06T07:12:30.870Z,285.57
2017-12-06T07:15:00.862Z,384.30
2017-12-06T07:17:28.630Z,410.40
2017-12-06T07:19:56.396Z,186.90
2017-12-06T07:22:24.272Z,216.50
2017-12-06T07:24:52.220Z,295.90
2017-12-06T07:27:20.226Z,490.23
2017-12-06T07:29:48.074Z,1033.13
2017-12-06T07:32:16.245Z,215.17
2017-12-06T07:34:44.169Z,333.20
2017-12-06T07:37:12.033Z,384.93
2017-12-06T07:39:39.845Z,343.17
2017-12-06T07:42:08.612Z,179.43
2017-12-06T07:44:36.715Z,105.37
2017-12-06T07:47:04.684Z,89.13
2017-12-06T07:49:32.458Z,139.40
2017-12-06T07:52:00.215Z,103.80
2017-12-06T07:54:28.386Z,210.10
2017-12-06T07:56:56.224Z,87.30
2017-12-06T07:59:24.008Z,62.63
2017-12-06T08:01:51.878Z,71.83
2017-12-06T08:04:19.821Z,99.50
2017-12-06T08:06:47.705Z,67.13
2017-12-06T08:09:15.525Z,81.33
2017-12-06T08:11:43.344Z,82.40
2017-12-06T08:14:11.308Z,70.67
2017-12-06T08:16:39.261Z,81.10
2017-12-06T08:19:07.163Z,78.43
2017-12-06T08:21:36.033Z,66.70
2017-12-06T08:24:04.108Z,62.37
2017-12-06T08:26:32.071Z,53.90
2017-12-06T08:29:00.613Z,50.33
2017-12-06T08:31:28.414Z,56.63
2017-12-06T08:33:56.198Z,50.50
2017-12-06T08:36:24.152Z,47.73
2017-12-06T08:38:52.019Z,64.03
2017-12-06T08:41:20.390Z,48.83
2017-12-06T08:43:49.183Z,53.93
2017-12-06T08:46:17.722Z,47.13
2017-12-06T08:48:45.543Z,47.23
2017-12-06T08:51:13.302Z,54.40
2017-12-06T08:53:41.169Z,170.13
2017-12-06T08:56:09.854Z,88.20
2017-12-06T08:58:37.795Z,59.50
2017-12-06T09:01:05.963Z,51.00
2017-12-06T09:03:33.729Z,50.70
2017-12-06T09:06:02.349Z,81.70
2017-12-06T09:08:30.134Z,92.73
2017-12-06T09:10:59.859Z,85.80
2017-12-06T09:13:27.782Z,66.30
2017-12-06T09:15:55.528Z,63.90
2017-12-06T09:18:23.379Z,54.70
2017-12-06T09:20:51.281Z,51.10
2017-12-06T09:23:19.256Z,67.83
2017-12-06T09:25:47.197Z,60.67
2017-12-06T09:28:15.240Z,56.43
2017-12-06T09:30:43.061Z,62.97
2017-12-06T09:33:11.095Z,126.77
2017-12-06T09:35:38.891Z,55.80
2017-12-06T09:38:06.653Z,397.93
2017-12-06T09:40:40.395Z,366.27
2017-12-06T09:43:08.417Z,144.03
2017-12-06T09:45:36.272Z,63.30
2017-12-06T09:48:04.040Z,57.60
2017-12-06T09:50:31.788Z,65.70
2017-12-06T09:52:59.783Z,74.20
2017-12-06T09:55:27.862Z,96.63
2017-12-06T09:57:56.163Z,91.80
2017-12-06T10:00:24.120Z,77.13
2017-12-06T10:02:52.807Z,69.53
2017-12-06T10:05:23.633Z,56.70
2017-12-06T10:07:52.232Z,61.87
2017-12-06T10:10:22.740Z,133.67
2017-12-06T10:12:50.811Z,119.80
2017-12-06T10:15:18.684Z,95.90
2017-12-06T10:17:46.563Z,70.40
2017-12-06T10:20:15.199Z,98.40
2017-12-06T10:22:43.009Z,324.93
2017-12-06T10:25:11.680Z,731.37
2017-12-06T10:27:39.735Z,146.93
2017-12-06T10:30:08.629Z,110.33
2017-12-06T10:32:36.578Z,65.57
2017-12-06T10:35:04.463Z,71.63
2017-12-06T10:37:32.269Z,71.43
2017-12-06T10:40:00.916Z,65.47
2017-12-06T10:42:28.881Z,91.80
2017-12-06T10:44:56.752Z,50.33
2017-12-06T10:47:25.799Z,68.83
2017-12-06T10:49:53.721Z,73.83
2017-12-06T10:52:21.512Z,70.17
2017-12-06T10:54:50.333Z,70.63
2017-12-06T10:57:18.231Z,73.63
2017-12-06T10:59:46.095Z,67.50
2017-12-06T11:02:14.049Z,225.40
2017-12-06T11:04:42.124Z,103.50
2017-12-06T11:07:09.902Z,59.30
2017-12-06T11:09:37.871Z,67.43
2017-12-06T11:12:05.649Z,46.13
2017-12-06T11:14:33.711Z,42.83
2017-12-06T11:17:01.510Z,51.30
2017-12-06T11:19:30.048Z,413.17
2017-12-06T11:21:57.912Z,84.73
2017-12-06T11:24:25.867Z,62.20
2017-12-06T11:26:53.772Z,41.53
2017-12-06T11:29:21.668Z,44.27
2017-12-06T11:31:49.780Z,54.80
2017-12-06T11:34:17.742Z,50.13
2017-12-06T11:36:45.571Z,51.33
2017-12-06T11:39:13.493Z,64.60
2017-12-06T11:41:41.367Z,56.17
2017-12-06T11:44:09.139Z,47.60
2017-12-06T11:46:37.204Z,53.70
2017-12-06T11:49:05.292Z,59.00
2017-12-06T11:51:34.031Z,59.63
2017-12-06T11:54:01.899Z,43.33
2017-12-06T11:56:29.643Z,48.23
2017-12-06T11:58:57.651Z,57.43
2017-12-06T12:01:25.499Z,50.30
2017-12-06T12:03:53.585Z,43.50
2017-12-06T12:06:21.570Z,48.60
2017-12-06T12:08:49.716Z,51.53
2017-12-06T12:11:17.720Z,45.30
2017-12-06T12:13:46.606Z,49.93
2017-12-06T12:16:14.402Z,45.87
2017-12-06T12:18:42.219Z,53.23
2017-12-06T12:21:10.477Z,51.97
2017-12-06T12:23:38.549Z,50.87
2017-12-06T12:26:06.419Z,43.27
2017-12-06T12:28:34.510Z,42.60
2017-12-06T12:31:02.499Z,49.43
2017-12-06T12:33:31.164Z,48.73
2017-12-06T12:35:59.108Z,41.90
2017-12-06T12:38:27.015Z,50.43
2017-12-06T12:40:55.660Z,47.73
2017-12-06T12:43:23.558Z,41.43
2017-12-06T12:45:52.646Z,51.47
2017-12-06T12:48:21.180Z,49.80
2017-12-06T12:50:49.183Z,58.00
2017-12-06T12:53:17.373Z,50.20
2017-12-06T12:55:46.459Z,46.33
2017-12-06T12:58:14.541Z,55.37
2017-12-06T13:00:42.697Z,40.47
2017-12-06T13:03:10.693Z,47.27
2017-12-06T13:05:39.312Z,47.97
2017-12-06T13:08:07.327Z,44.40
2017-12-06T13:10:35.311Z,51.33
2017-12-06T13:13:03.248Z,43.63
2017-12-06T13:15:31.318Z,50.00
2017-12-06T13:17:59.526Z,62.13
2017-12-06T13:20:27.563Z,59.57
2017-12-06T13:22:55.636Z,51.07
2017-12-06T13:25:23.812Z,54.90
2017-12-06T13:27:52.307Z,59.40
2017-12-06T13:30:20.780Z,61.97
2017-12-06T13:32:48.767Z,47.90
2017-12-06T13:35:17.536Z,54.43
2017-12-06T13:37:45.702Z,68.47
2017-12-06T13:40:13.881Z,43.40
2017-12-06T13:42:42.074Z,50.93
2017-12-06T13:45:10.347Z,45.23
2017-12-06T13:47:38.454Z,57.27
2017-12-06T13:50:07.486Z,47.17
2017-12-06T13:52:35.579Z,50.13
2017-12-06T13:55:03.656Z,47.43
2017-12-06T13:57:32.050Z,46.67
2017-12-06T13:59:59.867Z,45.63
2017-12-06T14:02:27.773Z,61.03
2017-12-06T14:04:55.851Z,51.57
2017-12-06T14:07:24.206Z,66.40
2017-12-06T14:09:52.284Z,49.97
2017-12-06T14:12:20.364Z,71.03
2017-12-06T14:14:48.406Z,48.10
2017-12-06T14:17:16.528Z,68.83
2017-12-06T14:19:46.007Z,61.00
2017-12-06T14:22:13.980Z,49.63
2017-12-06T14:24:42.024Z,47.43
2017-12-06T14:27:10.209Z,51.13
2017-12-06T14:29:38.394Z,46.47
2017-12-06T14:32:06.338Z,48.30
2017-12-06T14:34:34.511Z,46.33
2017-12-06T14:37:02.511Z,46.63
2017-12-06T14:39:30.572Z,52.83
2017-12-06T14:41:58.672Z,48.83
2017-12-06T14:44:27.331Z,56.67
2017-12-06T14:46:55.335Z,43.50
2017-12-06T14:49:23.970Z,47.03
2017-12-06T14:51:51.940Z,50.77
2017-12-06T14:54:20.122Z,41.07
2017-12-06T14:56:47.968Z,51.43
2017-12-06T14:59:16.020Z,54.33
2017-12-06T15:01:44.025Z,51.13
2017-12-06T15:04:11.896Z,44.80
2017-12-06T15:06:40.052Z,43.43
2017-12-06T15:09:08.137Z,53.30
2017-12-06T15:11:36.109Z,42.17
2017-12-06T15:14:04.114Z,44.57
2017-12-06T15:16:32.853Z,48.40
2017-12-06T15:19:00.868Z,46.70
2017-12-06T15:21:29.478Z,49.47
2017-12-06T15:23:57.407Z,54.17
2017-12-06T15:26:26.565Z,57.27
2017-12-06T15:28:54.408Z,49.30
2017-12-06T15:31:22.327Z,47.90
2017-12-06T15:33:50.397Z,49.47
2017-12-06T15:36:18.521Z,51.60
2017-12-06T15:38:46.370Z,52.73
2017-12-06T15:41:15.280Z,52.27
2017-12-06T15:43:43.282Z,52.53
2017-12-06T15:46:11.236Z,56.23
2017-12-06T15:48:39.172Z,49.73
2017-12-06T15:51:07.208Z,52.40
2017-12-06T15:53:35.846Z,62.73
2017-12-06T15:56:04.880Z,54.53
2017-12-06T15:58:33.687Z,53.70
2017-12-06T16:01:02.744Z,54.57
2017-12-06T16:03:30.724Z,49.30
2017-12-06T16:05:58.683Z,53.30
2017-12-06T16:08:26.730Z,53.70
2017-12-06T16:10:54.733Z,62.63
2017-12-06T16:13:23.533Z,49.53
2017-12-06T16:15:53.027Z,54.07
2017-12-06T16:18:21.075Z,55.30
2017-12-06T16:20:49.063Z,51.60
2017-12-06T16:23:16.946Z,52.30
2017-12-06T16:25:45.801Z,62.43
2017-12-06T16:28:13.692Z,54.30
2017-12-06T16:30:41.737Z,55.53
2017-12-06T16:33:09.808Z,55.10
2017-12-06T16:35:49.584Z,50.50
2017-12-06T16:38:17.554Z,54.17
2017-12-06T16:40:45.530Z,55.80
2017-12-06T16:43:13.481Z,63.83
2017-12-06T16:45:41.424Z,52.03
2017-12-06T16:48:09.326Z,54.23
2017-12-06T16:50:37.227Z,65.23
2017-12-06T16:53:05.141Z,58.70
2017-12-06T16:55:33.099Z,57.83
2017-12-06T16:58:01.095Z,59.40
2017-12-06T17:00:29.167Z,57.50
2017-12-06T17:02:57.051Z,66.97
2017-12-06T17:05:25.818Z,67.07
2017-12-06T17:07:53.864Z,56.57
2017-12-06T17:10:21.942Z,60.97
2017-12-06T17:12:50.005Z,66.03
2017-12-06T17:15:17.992Z,59.53
2017-12-06T17:17:46.143Z,69.93
2017-12-06T17:20:14.366Z,61.53
2017-12-06T17:22:42.999Z,64.93
2017-12-06T17:25:11.082Z,67.83
2017-12-06T17:27:39.260Z,78.20
2017-12-06T17:30:19.404Z,69.60
2017-12-06T17:32:48.157Z,63.30
2017-12-06T17:35:16.501Z,71.60
2017-12-06T17:37:44.727Z,68.43
2017-12-06T17:40:14.894Z,68.50
2017-12-06T17:42:42.858Z,67.43
2017-12-06T17:45:11.098Z,68.20
2017-12-06T17:47:39.181Z,63.80
2017-12-06T17:50:19.387Z,65.50
2017-12-06T17:52:48.428Z,64.07
2017-12-06T17:55:16.499Z,62.90
2017-12-06T17:57:44.471Z,68.13
2017-12-06T18:00:12.567Z,70.73
2017-12-06T18:02:40.546Z,71.83
2017-12-06T18:05:09.399Z,74.93
2017-12-06T18:07:37.500Z,76.90
2017-12-06T18:10:05.544Z,65.03
2017-12-06T18:12:33.420Z,67.57
2017-12-06T18:15:01.684Z,83.27
2017-12-06T18:17:29.702Z,69.40
2017-12-06T18:19:58.556Z,69.27
2017-12-06T18:22:26.391Z,69.90
2017-12-06T18:24:55.075Z,85.70
2017-12-06T18:27:23.164Z,85.00
2017-12-06T18:29:51.170Z,68.83
2017-12-06T18:32:19.928Z,74.30
2017-12-06T18:34:47.907Z,69.73
2017-12-06T18:37:15.887Z,64.80
2017-12-06T18:39:43.919Z,78.60
2017-12-06T18:42:11.917Z,73.20
2017-12-06T18:44:39.887Z,83.07
2017-12-06T18:47:07.937Z,67.73
2017-12-06T18:49:35.712Z,69.20
2017-12-06T18:52:04.000Z,66.23
2017-12-06T18:54:31.879Z,61.13
2017-12-06T18:57:00.126Z,78.03
2017-12-06T18:59:28.605Z,81.93
2017-12-06T19:01:58.523Z,66.57
2017-12-06T19:04:26.670Z,65.93
2017-12-06T19:06:54.839Z,65.30
2017-12-06T19:09:22.937Z,77.90
2017-12-06T19:11:51.111Z,100.37
2017-12-06T19:14:19.738Z,72.60
2017-12-06T19:16:48.746Z,73.27
2017-12-06T19:19:17.064Z,81.77
2017-12-06T19:21:45.547Z,77.03
2017-12-06T19:24:13.597Z,89.00
2017-12-06T19:26:41.772Z,89.27
2017-12-06T19:29:09.664Z,82.47
2017-12-06T19:31:37.687Z,76.27
2017-12-06T19:34:05.697Z,83.43
2017-12-06T19:36:33.684Z,83.73
2017-12-06T19:39:01.674Z,74.43
2017-12-06T19:41:29.978Z,73.50
2017-12-06T19:43:57.895Z,69.67
2017-12-06T19:46:26.192Z,76.10
2017-12-06T19:48:55.160Z,79.00
2017-12-06T19:51:23.162Z,93.67
2017-12-06T19:53:52.021Z,67.77
2017-12-06T19:56:19.924Z,71.37
2017-12-06T19:58:48.200Z,82.80
2017-12-06T20:01:17.251Z,93.97
2017-12-06T20:03:45.223Z,79.10
2017-12-06T20:06:13.050Z,85.70
2017-12-06T20:08:41.551Z,76.90
2017-12-06T20:11:10.653Z,75.17
2017-12-06T20:13:38.663Z,86.97
2017-12-06T20:16:07.536Z,75.47
2017-12-06T20:18:36.752Z,100.77
2017-12-06T20:21:05.573Z,90.30
2017-12-06T20:23:34.098Z,80.00
2017-12-06T20:26:02.411Z,75.77
2017-12-06T20:28:31.242Z,88.07
2017-12-06T20:31:00.139Z,83.63
2017-12-06T20:33:28.026Z,94.30
2017-12-06T20:35:56.279Z,107.20
2017-12-06T20:38:24.466Z,96.13
2017-12-06T20:40:52.344Z,70.73
2017-12-06T20:43:20.661Z,61.27
2017-12-06T20:45:48.636Z,69.47
2017-12-06T20:48:17.451Z,60.53
2017-12-06T20:50:45.311Z,67.37
2017-12-06T20:53:13.305Z,71.70
2017-12-06T20:55:41.151Z,63.10
2017-12-06T20:58:09.046Z,89.67
2017-12-06T21:00:38.516Z,111.50
2017-12-06T21:03:06.402Z,75.87
2017-12-06T21:05:34.592Z,67.67
2017-12-06T21:08:03.107Z,66.00
2017-12-06T21:10:31.023Z,63.23
2017-12-06T21:12:59.008Z,56.60
2017-12-06T21:15:27.051Z,54.40
2017-12-06T21:17:54.913Z,58.10
2017-12-06T21:20:23.094Z,55.10
2017-12-06T21:22:51.291Z,59.37
2017-12-06T21:25:21.238Z,60.57
2017-12-06T21:27:49.934Z,65.30
2017-12-06T21:30:18.163Z,56.90
2017-12-06T21:32:46.312Z,59.40
2017-12-06T21:35:14.285Z,62.40
2017-12-06T21:37:42.287Z,55.53
2017-12-06T21:40:11.539Z,56.47
2017-12-06T21:42:40.185Z,66.53
2017-12-06T21:45:08.596Z,60.43
2017-12-06T21:47:36.787Z,84.90
2017-12-06T21:50:04.855Z,81.37
2017-12-06T21:52:32.824Z,64.80
2017-12-06T21:55:01.736Z,63.43
2017-12-06T21:57:29.611Z,66.00
2017-12-06T21:59:57.573Z,59.50
2017-12-06T22:02:25.630Z,64.70
2017-12-06T22:05:03.546Z,56.83
2017-12-06T22:07:31.723Z,64.07
2017-12-06T22:09:59.769Z,77.67
2017-12-06T22:12:27.763Z,63.07
2017-12-06T22:14:56.090Z,60.90
2017-12-06T22:17:24.012Z,64.47
2017-12-06T22:19:51.974Z,64.90
2017-12-06T22:22:19.849Z,57.63
2017-12-06T22:24:47.765Z,65.57
2017-12-06T22:27:15.756Z,59.20
2017-12-06T22:29:43.821Z,58.90
2017-12-06T22:32:11.580Z,64.83
2017-12-06T22:34:39.532Z,63.10
2017-12-06T22:37:07.549Z,59.03
2017-12-06T22:39:35.630Z,61.97
2017-12-06T22:42:03.694Z,50.87
2017-12-06T22:44:32.286Z,58.37
2017-12-06T22:47:01.072Z,63.97
2017-12-06T22:49:29.213Z,59.37
2017-12-06T22:51:57.098Z,62.07
2017-12-06T22:54:25.054Z,56.87
2017-12-06T22:56:53.151Z,66.23
2017-12-06T22:59:21.189Z,61.00
2017-12-06T23:01:49.169Z,60.07
2017-12-06T23:04:17.234Z,61.43
2017-12-06T23:06:45.118Z,53.43
2017-12-06T23:09:13.698Z,60.30
2017-12-06T23:11:41.455Z,54.57
2017-12-06T23:14:10.157Z,65.87
2017-12-06T23:16:38.124Z,60.03
2017-12-06T23:19:06.293Z,64.57
2017-12-06T23:21:34.190Z,62.83
2017-12-06T23:24:02.921Z,58.73
2017-12-06T23:26:31.029Z,67.17
2017-12-06T23:28:58.798Z,64.00
2017-12-06T23:31:27.584Z,69.80
2017-12-06T23:33:55.443Z,60.43
2017-12-06T23:36:23.585Z,63.97
2017-12-06T23:38:51.651Z,53.33
2017-12-06T23:41:19.542Z,51.07
2017-12-06T23:43:47.524Z,61.10
2017-12-06T23:46:15.299Z,65.03
2017-12-06T23:48:43.835Z,58.97
2017-12-06T23:51:12.751Z,51.13
2017-12-06T23:53:40.910Z,56.63
2017-12-06T23:56:08.795Z,55.77
2017-12-06T23:58:38.237Z,59.77
